Time;durP1;ratioP1;P1;durP2;ratioP2;P2;SDS_P1;SDS_P2;PMS_P1;PMS_P2;Temp;Humidity;BMP_temperature;BMP_pressure;BME280_temperature;BME280_humidity;BME280_pressure;Samples;Min_cycle;Max_cycle;Signal;HPM_P1;HPM_P2
2021/08/01 00:00:47;;;;;;;13.03;9.00;;;16.20;99.90;;;;;;4979225;28;20457;-73
2021/08/01 00:03:12;;;;;;;13.23;9.17;;;16.10;99.90;;;;;;4991402;28;20450;-73
2021/08/01 00:05:38;;;;;;;11.52;9.80;;;16.10;99.90;;;;;;4985015;28;20411;-72
2021/08/01 00:08:04;;;;;;;11.45;8.85;;;16.10;99.90;;;;;;4977657;28;20398;-72
2021/08/01 00:10:29;;;;;;;11.57;9.38;;;16.10;99.90;;;;;;5006950;28;20395;-71
2021/08/01 00:12:55;;;;;;;12.18;9.52;;;16.20;99.90;;;;;;4986137;28;20435;-72
2021/08/01 00:15:22;;;;;;;10.10;8.55;;;16.30;99.90;;;;;;4991818;28;20449;-72
2021/08/01 00:17:47;;;;;;;12.50;9.30;;;16.40;99.90;;;;;;4991363;28;20421;-72
2021/08/01 00:20:13;;;;;;;11.60;8.70;;;16.40;99.90;;;;;;4991798;28;20394;-72
2021/08/01 00:22:39;;;;;;;9.55;7.90;;;16.60;99.90;;;;;;4991160;28;20929;-72
2021/08/01 00:25:05;;;;;;;11.05;8.50;;;16.60;99.90;;;;;;4972528;28;20415;-72
2021/08/01 00:27:34;;;;;;;12.00;8.82;;;16.50;99.90;;;;;;4981427;28;20891;-72
2021/08/01 00:30:04;;;;;;;12.25;9.13;;;16.40;99.90;;;;;;4990195;28;20402;-72
2021/08/01 00:32:29;;;;;;;15.70;9.00;;;16.40;99.90;;;;;;4983174;28;20421;-73
2021/08/01 00:34:55;;;;;;;12.07;8.60;;;16.50;99.90;;;;;;4985901;28;20396;-70
2021/08/01 00:37:20;;;;;;;12.07;8.90;;;16.40;99.90;;;;;;4971839;28;20754;-70
2021/08/01 00:39:46;;;;;;;10.87;8.80;;;16.30;99.90;;;;;;4971699;28;20385;-70
2021/08/01 00:42:11;;;;;;;12.30;8.90;;;16.40;99.90;;;;;;4975706;28;20402;-70
2021/08/01 00:44:37;;;;;;;13.57;8.20;;;16.60;99.90;;;;;;4989863;28;20402;-70
2021/08/01 00:47:04;;;;;;;11.90;8.33;;;16.80;99.90;;;;;;4990695;28;20403;-71
2021/08/01 00:49:30;;;;;;;8.80;7.90;;;16.70;99.90;;;;;;4990081;28;20724;-70
2021/08/01 00:51:55;;;;;;;10.60;8.70;;;16.60;99.90;;;;;;4991076;28;20421;-70
2021/08/01 00:54:23;;;;;;;14.05;8.65;;;16.50;99.90;;;;;;4991292;28;20780;-70
2021/08/01 00:56:49;;;;;;;12.18;9.18;;;16.60;99.90;;;;;;4991034;28;20409;-70
2021/08/01 00:59:15;;;;;;;13.10;9.20;;;16.70;99.90;;;;;;4986523;28;20974;-70
2021/08/01 01:01:57;;;;;;;13.95;9.30;;;16.60;99.90;;;;;;4971772;28;20486;-70
2021/08/01 01:04:43;;;;;;;13.63;9.10;;;16.80;99.90;;;;;;4971819;28;20420;-70
2021/08/01 01:07:18;;;;;;;10.85;9.10;;;16.70;99.90;;;;;;4989780;28;20407;-70
2021/08/01 01:09:52;;;;;;;15.40;9.02;;;16.50;99.90;;;;;;4971702;28;20384;-70
2021/08/01 01:12:22;;;;;;;12.30;9.05;;;16.50;99.90;;;;;;4990237;28;20442;-70
2021/08/01 01:14:50;;;;;;;12.05;8.98;;;16.40;99.90;;;;;;4990816;28;20397;-70
2021/08/01 01:17:23;;;;;;;12.55;9.10;;;16.50;99.90;;;;;;4989877;28;20413;-70
2021/08/01 01:20:13;;;;;;;12.33;10.00;;;16.40;99.90;;;;;;4991029;28;20426;-69
2021/08/01 01:22:45;;;;;;;11.63;8.95;;;16.50;99.90;;;;;;4989506;28;20398;-69
2021/08/01 01:25:33;;;;;;;14.38;10.35;;;16.50;99.90;;;;;;4990198;28;20770;-69
2021/08/01 01:28:13;;;;;;;14.55;10.73;;;16.50;99.90;;;;;;4984265;28;20404;-70
2021/08/01 01:30:47;;;;;;;12.55;9.50;;;16.50;99.90;;;;;;4971483;28;20388;-69
2021/08/01 01:33:17;;;;;;;13.85;10.60;;;16.50;99.90;;;;;;4971131;28;20388;-69
2021/08/01 01:35:48;;;;;;;16.20;10.70;;;16.50;99.90;;;;;;4971413;28;20474;-69
2021/08/01 01:38:14;;;;;;;14.30;10.60;;;16.50;98.50;;;;;;4973592;28;20435;-69
2021/08/01 01:40:40;;;;;;;12.85;11.00;;;16.50;99.90;;;;;;4977351;28;20398;-70
2021/08/01 01:43:07;;;;;;;16.17;10.85;;;16.80;97.40;;;;;;4990412;28;20382;-70
2021/08/01 01:45:35;;;;;;;13.98;10.38;;;17.00;83.40;;;;;;4990803;28;20907;-69
2021/08/01 01:48:01;;;;;;;11.68;10.20;;;17.10;85.40;;;;;;4987080;28;20443;-69
2021/08/01 01:50:27;;;;;;;16.43;11.17;;;16.90;94.00;;;;;;4975982;28;20836;-70
2021/08/01 01:52:53;;;;;;;17.00;11.87;;;16.70;92.30;;;;;;4994471;28;20393;-69
2021/08/01 01:55:20;;;;;;;17.63;12.00;;;16.70;94.20;;;;;;4994590;28;20496;-69
2021/08/01 01:57:46;;;;;;;16.25;11.90;;;16.60;97.80;;;;;;4991448;28;20405;-69
2021/08/01 02:00:13;;;;;;;16.00;11.40;;;16.60;97.00;;;;;;4974941;28;20912;-67
2021/08/01 02:02:39;;;;;;;18.90;11.80;;;16.60;98.30;;;;;;4975051;28;20396;-68
2021/08/01 02:05:05;;;;;;;16.10;11.87;;;16.60;97.00;;;;;;4980056;28;20781;-68
2021/08/01 02:07:31;;;;;;;17.47;11.70;;;16.60;97.00;;;;;;4993604;28;20795;-68
2021/08/01 02:10:04;;;;;;;17.20;11.85;;;16.60;95.10;;;;;;4993953;28;20394;-68
2021/08/01 02:12:49;;;;;;;21.13;12.32;;;16.60;93.20;;;;;;4993733;28;20456;-68
2021/08/01 02:15:23;;;;;;;13.95;10.95;;;16.60;90.40;;;;;;4982452;28;20456;-69
2021/08/01 02:18:05;;;;;;;17.77;11.65;;;16.60;89.20;;;;;;4993344;28;20434;-68
2021/08/01 02:20:40;;;;;;;14.73;11.70;;;16.60;88.50;;;;;;4994133;28;20386;-68
2021/08/01 02:23:08;;;;;;;15.40;11.15;;;16.70;87.10;;;;;;4993883;28;20441;-68
2021/08/01 02:25:36;;;;;;;14.35;11.13;;;16.70;82.80;;;;;;4993723;28;20846;-68
2021/08/01 02:28:07;;;;;;;19.45;11.80;;;16.80;80.30;;;;;;4993833;28;20755;-69
2021/08/01 02:30:34;;;;;;;13.93;11.30;;;16.90;79.60;;;;;;4994198;28;20755;-68
2021/08/01 02:33:00;;;;;;;16.17;11.80;;;16.80;80.40;;;;;;4993533;28;20390;-69
2021/08/01 02:35:27;;;;;;;19.05;12.02;;;16.80;78.20;;;;;;4985307;28;20451;-69
2021/08/01 02:37:55;;;;;;;17.23;11.65;;;16.70;82.20;;;;;;4989882;28;20814;-69
2021/08/01 02:40:20;;;;;;;17.83;12.60;;;16.70;83.80;;;;;;4993784;28;20489;-69
2021/08/01 02:42:49;;;;;;;18.08;12.10;;;16.70;80.50;;;;;;4993903;28;20521;-69
2021/08/01 02:45:16;;;;;;;14.75;12.27;;;16.80;79.50;;;;;;4986114;28;20409;-69
2021/08/01 02:47:43;;;;;;;18.00;11.90;;;16.70;81.20;;;;;;4991470;28;20403;-69
2021/08/01 02:50:10;;;;;;;17.02;12.60;;;16.70;80.70;;;;;;4982577;28;20758;-69
2021/08/01 02:52:57;;;;;;;18.20;12.48;;;16.70;81.30;;;;;;4993671;28;20786;-69
2021/08/01 02:55:24;;;;;;;20.83;12.80;;;16.60;82.60;;;;;;4992996;28;20759;-70
2021/08/01 02:57:51;;;;;;;19.70;13.40;;;16.70;80.40;;;;;;4990433;28;20415;-69
2021/08/01 03:00:18;;;;;;;17.00;12.82;;;16.70;77.70;;;;;;4974158;28;20487;-69
2021/08/01 03:03:00;;;;;;;19.40;14.18;;;16.80;78.10;;;;;;4974174;28;20392;-70
2021/08/01 03:05:27;;;;;;;19.20;13.15;;;16.80;75.60;;;;;;4975969;28;20415;-70
2021/08/01 03:07:53;;;;;;;18.10;14.40;;;16.80;77.60;;;;;;4987820;28;20406;-69
2021/08/01 03:10:19;;;;;;;21.25;14.10;;;16.80;76.40;;;;;;4993346;28;20391;-70
2021/08/01 03:12:50;;;;;;;20.98;13.68;;;16.80;73.80;;;;;;4993679;28;20485;-70
2021/08/01 03:15:16;;;;;;;21.27;14.40;;;16.90;72.50;;;;;;4992186;28;20548;-69
2021/08/01 03:17:41;;;;;;;21.35;14.52;;;16.90;70.90;;;;;;4992541;28;20890;-69
2021/08/01 03:20:09;;;;;;;18.85;14.18;;;16.80;73.10;;;;;;4992828;28;20387;-69
2021/08/01 03:22:35;;;;;;;23.75;14.05;;;16.80;72.10;;;;;;4993050;28;20448;-70
2021/08/01 03:25:01;;;;;;;19.35;14.02;;;16.70;73.70;;;;;;4990496;28;20437;-70
2021/08/01 03:27:27;;;;;;;21.27;14.68;;;16.60;75.10;;;;;;4984211;28;20911;-69
2021/08/01 03:29:52;;;;;;;23.95;15.18;;;16.50;75.20;;;;;;4992443;28;20395;-70
2021/08/01 03:32:19;;;;;;;18.65;14.18;;;16.50;76.70;;;;;;4992731;28;20887;-70
2021/08/01 03:34:45;;;;;;;22.30;15.30;;;16.50;77.20;;;;;;4993012;28;20390;-70
2021/08/01 03:37:11;;;;;;;19.83;13.60;;;16.40;77.80;;;;;;4991676;28;20532;-70
2021/08/01 03:39:36;;;;;;;20.43;14.50;;;16.40;78.70;;;;;;4992692;28;20395;-69
2021/08/01 03:42:03;;;;;;;19.30;13.93;;;16.50;72.40;;;;;;4992455;28;20400;-69
2021/08/01 03:44:28;;;;;;;20.65;13.95;;;16.60;72.60;;;;;;4985054;28;20748;-70
2021/08/01 03:46:54;;;;;;;20.10;13.80;;;16.70;69.90;;;;;;4988694;28;20434;-69
2021/08/01 03:49:19;;;;;;;22.50;13.20;;;16.70;69.20;;;;;;4992023;28;20390;-69
2021/08/01 03:51:45;;;;;;;20.33;14.03;;;16.60;70.20;;;;;;4992436;28;20911;-70
2021/08/01 03:54:11;;;;;;;17.98;13.25;;;16.50;70.50;;;;;;4992261;28;20902;-70
2021/08/01 03:56:44;;;;;;;16.60;12.60;;;16.50;72.50;;;;;;4983900;28;20411;-70
2021/08/01 03:59:13;;;;;;;17.58;12.20;;;16.50;71.30;;;;;;4991944;28;20460;-69
2021/08/01 04:01:42;;;;;;;18.50;11.38;;;16.50;68.20;;;;;;4992271;28;20421;-70
2021/08/01 04:04:08;;;;;;;15.85;11.07;;;16.50;67.00;;;;;;4985339;28;20827;-69
2021/08/01 04:06:37;;;;;;;15.05;10.48;;;16.40;67.50;;;;;;5001717;28;20421;-70
2021/08/01 04:09:06;;;;;;;15.82;11.27;;;16.40;66.20;;;;;;4990156;28;20496;-73
2021/08/01 04:11:33;;;;;;;19.03;11.10;;;16.40;66.50;;;;;;4988505;28;20451;-71
2021/08/01 04:13:59;;;;;;;17.50;11.05;;;16.40;68.00;;;;;;4979217;28;20883;-71
2021/08/01 04:16:31;;;;;;;15.27;11.02;;;16.40;67.80;;;;;;4989728;28;20796;-70
2021/08/01 04:18:56;;;;;;;21.08;12.07;;;16.30;69.00;;;;;;4988875;28;20394;-70
2021/08/01 04:21:25;;;;;;;15.10;11.03;;;16.30;67.30;;;;;;4990133;28;20755;-71
2021/08/01 04:23:54;;;;;;;15.38;10.90;;;16.30;65.70;;;;;;4972133;28;20470;-70
2021/08/01 04:26:19;;;;;;;12.38;10.30;;;16.30;67.00;;;;;;4976237;28;20417;-71
2021/08/01 04:28:45;;;;;;;18.77;10.70;;;16.20;66.30;;;;;;4991509;28;20457;-71
2021/08/01 04:31:10;;;;;;;16.33;11.05;;;16.10;67.10;;;;;;4979615;28;20853;-70
2021/08/01 04:33:36;;;;;;;17.27;10.70;;;16.20;66.70;;;;;;4972101;28;20906;-70
2021/08/01 04:36:01;;;;;;;21.63;10.80;;;16.20;67.40;;;;;;4973223;28;20399;-70
2021/08/01 04:38:27;;;;;;;17.90;10.53;;;16.20;66.00;;;;;;4991379;28;20410;-70
2021/08/01 04:40:52;;;;;;;16.63;10.77;;;16.20;66.40;;;;;;4990825;28;20394;-71
2021/08/01 04:43:18;;;;;;;18.30;11.50;;;16.10;66.70;;;;;;4991579;28;20481;-70
2021/08/01 04:45:43;;;;;;;16.70;10.30;;;16.20;67.60;;;;;;4973786;28;20835;-71
2021/08/01 04:48:09;;;;;;;13.98;9.90;;;16.10;68.50;;;;;;5004703;28;20399;-71
2021/08/01 04:50:35;;;;;;;16.40;10.20;;;16.20;67.10;;;;;;4984210;28;20483;-70
2021/08/01 04:53:00;;;;;;;14.77;9.90;;;16.10;67.00;;;;;;4984567;28;20889;-70
2021/08/01 04:55:26;;;;;;;16.07;10.77;;;16.00;67.50;;;;;;4989128;28;20540;-71
2021/08/01 04:57:51;;;;;;;15.40;10.80;;;15.90;69.60;;;;;;4980932;28;20411;-70
2021/08/01 05:00:17;;;;;;;20.75;11.00;;;15.90;69.90;;;;;;4971585;28;20959;-70
2021/08/01 05:02:42;;;;;;;17.43;11.00;;;15.90;68.30;;;;;;4971836;28;20471;-70
2021/08/01 05:05:08;;;;;;;18.53;11.37;;;15.90;68.90;;;;;;4974364;28;20408;-70
2021/08/01 05:07:34;;;;;;;17.50;11.23;;;15.80;70.80;;;;;;4990197;28;20776;-70
2021/08/01 05:10:00;;;;;;;20.20;10.73;;;15.90;71.10;;;;;;4991109;28;20386;-71
2021/08/01 05:12:26;;;;;;;17.50;10.20;;;15.90;69.80;;;;;;4971953;28;20491;-70
2021/08/01 05:14:52;;;;;;;16.85;10.80;;;15.90;69.40;;;;;;4971290;28;20391;-70
2021/08/01 05:17:17;;;;;;;19.20;11.13;;;15.90;69.00;;;;;;4981774;28;20406;-70
2021/08/01 05:19:43;;;;;;;18.27;11.33;;;15.90;69.20;;;;;;4990741;28;20413;-70
2021/08/01 05:22:10;;;;;;;20.48;11.57;;;16.00;68.20;;;;;;4988286;28;20701;-70
2021/08/01 05:24:37;;;;;;;15.88;11.02;;;15.90;68.40;;;;;;4971254;28;20421;-69
2021/08/01 05:27:03;;;;;;;24.80;12.80;;;16.00;68.20;;;;;;4979471;28;20396;-70
2021/08/01 05:29:29;;;;;;;19.27;11.27;;;16.10;65.10;;;;;;4990870;28;20480;-70
2021/08/01 05:31:55;;;;;;;19.55;11.68;;;16.10;66.20;;;;;;4990839;28;20426;-71
2021/08/01 05:34:21;;;;;;;20.92;13.38;;;16.20;65.10;;;;;;4990539;28;20776;-71
2021/08/01 05:36:47;;;;;;;23.80;13.18;;;16.30;61.70;;;;;;4991001;28;20406;-71
2021/08/01 05:39:13;;;;;;;26.02;14.40;;;16.30;62.10;;;;;;4990843;28;20394;-70
2021/08/01 05:41:38;;;;;;;22.95;14.35;;;16.30;62.20;;;;;;4990954;28;20398;-70
2021/08/01 05:44:04;;;;;;;30.43;14.50;;;16.40;60.60;;;;;;4986559;28;20423;-70
2021/08/01 05:46:30;;;;;;;26.63;14.50;;;16.30;60.70;;;;;;4989870;28;20394;-70
2021/08/01 05:48:55;;;;;;;27.63;15.67;;;16.30;61.50;;;;;;4988785;28;20395;-70
2021/08/01 05:51:21;;;;;;;31.10;15.70;;;16.40;59.50;;;;;;4989216;28;20436;-70
2021/08/01 05:53:47;;;;;;;29.30;16.48;;;16.50;58.60;;;;;;4990574;28;20832;-70
2021/08/01 05:56:13;;;;;;;29.88;15.70;;;16.50;58.40;;;;;;4986758;28;20406;-69
2021/08/01 05:58:40;;;;;;;26.98;15.32;;;16.70;55.90;;;;;;4986500;28;20468;-70
2021/08/01 06:01:16;;;;;;;23.58;14.80;;;16.90;54.30;;;;;;4990599;28;20404;-71
2021/08/01 06:03:43;;;;;;;29.60;15.43;;;17.00;53.10;;;;;;4990509;28;20386;-71
2021/08/01 06:06:17;;;;;;;30.00;16.07;;;17.10;52.70;;;;;;4989912;28;20478;-68
2021/08/01 06:08:46;;;;;;;25.00;15.70;;;17.20;51.20;;;;;;4971140;28;20479;-70
2021/08/01 06:11:12;;;;;;;23.30;13.90;;;17.20;50.30;;;;;;4971186;28;20416;-70
2021/08/01 06:13:38;;;;;;;24.02;14.30;;;17.30;50.70;;;;;;4971258;28;20377;-71
2021/08/01 06:16:07;;;;;;;31.20;15.57;;;17.40;49.50;;;;;;4974013;28;20390;-70
2021/08/01 06:18:33;;;;;;;27.73;13.35;;;17.50;48.40;;;;;;4982015;28;20939;-70
2021/08/01 06:21:02;;;;;;;27.03;14.43;;;17.40;48.50;;;;;;4975880;28;20688;-70
2021/08/01 06:23:27;;;;;;;22.10;13.35;;;17.30;49.10;;;;;;4990576;28;20489;-72
2021/08/01 06:25:53;;;;;;;20.92;12.77;;;17.30;49.70;;;;;;4989790;28;20501;-69
2021/08/01 06:28:18;;;;;;;20.27;11.73;;;17.20;49.80;;;;;;4989820;28;20603;-69
2021/08/01 06:30:44;;;;;;;20.55;11.05;;;17.00;51.00;;;;;;4988123;28;20402;-70
2021/08/01 06:33:09;;;;;;;17.75;10.20;;;16.90;50.90;;;;;;4980076;28;20402;-69
2021/08/01 06:35:36;;;;;;;21.60;9.97;;;16.90;50.60;;;;;;4987252;28;20922;-70
2021/08/01 06:38:02;;;;;;;26.60;10.55;;;16.90;50.70;;;;;;4991288;28;20402;-70
2021/08/01 06:40:28;;;;;;;20.17;10.47;;;17.00;49.90;;;;;;4988336;28;20885;-69
2021/08/01 06:42:53;;;;;;;19.80;9.90;;;17.10;50.10;;;;;;4979677;28;20404;-73
2021/08/01 06:45:19;;;;;;;21.63;10.68;;;17.10;50.60;;;;;;4975096;28;20506;-75
2021/08/01 06:47:44;;;;;;;25.08;10.68;;;17.20;49.40;;;;;;4993339;28;20406;-73
2021/08/01 06:50:10;;;;;;;22.07;9.80;;;17.20;50.10;;;;;;4993942;28;20537;-72
2021/08/01 06:52:36;;;;;;;22.73;9.70;;;17.40;49.40;;;;;;4993676;28;20481;-73
2021/08/01 06:55:02;;;;;;;18.37;8.60;;;17.50;47.50;;;;;;4993368;28;20485;-73
2021/08/01 06:57:28;;;;;;;20.65;7.75;;;17.50;46.70;;;;;;4993413;28;20460;-73
2021/08/01 06:59:53;;;;;;;17.63;7.60;;;17.50;45.70;;;;;;4974271;28;20664;-73
2021/08/01 07:02:19;;;;;;;15.90;7.83;;;17.50;45.90;;;;;;4974686;28;20885;-73
2021/08/01 07:04:44;;;;;;;15.80;6.80;;;17.70;45.50;;;;;;4974469;28;20417;-73
2021/08/01 07:07:10;;;;;;;15.00;7.30;;;17.80;46.30;;;;;;4990583;28;20395;-70
2021/08/01 07:09:40;;;;;;;18.83;7.10;;;17.80;44.50;;;;;;4981679;28;20408;-71
2021/08/01 07:12:09;;;;;;;16.25;7.00;;;17.90;44.50;;;;;;4974704;28;20400;-71
2021/08/01 07:14:35;;;;;;;14.65;6.85;;;18.00;44.90;;;;;;4988608;28;20460;-71
2021/08/01 07:17:01;;;;;;;18.80;6.90;;;18.10;43.80;;;;;;4992170;28;20489;-70
2021/08/01 07:19:27;;;;;;;20.25;7.15;;;18.20;42.80;;;;;;5006117;28;20887;-71
2021/08/01 07:21:53;;;;;;;20.15;8.55;;;18.20;41.60;;;;;;4985468;28;20404;-71
2021/08/01 07:24:19;;;;;;;16.48;6.40;;;18.40;40.40;;;;;;4981980;28;20408;-72
2021/08/01 07:26:48;;;;;;;19.00;7.18;;;18.70;39.30;;;;;;4987848;28;20394;-71
2021/08/01 07:29:14;;;;;;;14.73;7.00;;;18.70;39.60;;;;;;4991972;28;20764;-73
2021/08/01 07:31:40;;;;;;;15.75;6.20;;;18.80;38.80;;;;;;4990340;28;20399;-72
2021/08/01 07:34:05;;;;;;;15.85;6.38;;;19.00;38.60;;;;;;4992628;28;20442;-70
2021/08/01 07:36:32;;;;;;;10.77;6.30;;;19.00;37.90;;;;;;4992391;28;20405;-70
2021/08/01 07:38:57;;;;;;;14.73;7.00;;;18.80;37.90;;;;;;4991738;28;20407;-69
2021/08/01 07:41:23;;;;;;;15.60;6.80;;;18.80;37.50;;;;;;4984248;28;20402;-70
2021/08/01 07:43:51;;;;;;;13.73;6.63;;;18.80;38.00;;;;;;4989469;28;20390;-71
2021/08/01 07:46:17;;;;;;;23.73;6.82;;;18.90;37.90;;;;;;4985630;28;20398;-71
2021/08/01 07:48:43;;;;;;;19.95;7.00;;;19.00;37.70;;;;;;4992056;28;20453;-70
2021/08/01 07:51:08;;;;;;;17.73;6.60;;;19.20;36.00;;;;;;4975804;28;20786;-70
2021/08/01 07:53:34;;;;;;;13.90;6.60;;;19.10;36.20;;;;;;4991735;28;20402;-70
2021/08/01 07:55:59;;;;;;;15.93;6.40;;;19.20;36.20;;;;;;4991950;28;20433;-70
2021/08/01 07:58:25;;;;;;;12.70;5.68;;;19.50;35.10;;;;;;4991906;28;20429;-70
2021/08/01 08:00:51;;;;;;;13.20;6.20;;;19.80;33.40;;;;;;4992690;28;20398;-70
2021/08/01 08:03:16;;;;;;;8.60;5.72;;;19.80;33.00;;;;;;4992282;28;20386;-70
2021/08/01 08:05:42;;;;;;;12.15;5.55;;;19.90;32.90;;;;;;4991711;28;20422;-70
2021/08/01 08:08:07;;;;;;;12.40;5.83;;;20.00;31.80;;;;;;4989828;28;20928;-71
2021/08/01 08:10:33;;;;;;;12.90;5.50;;;20.10;32.00;;;;;;4983863;28;20500;-71
2021/08/01 08:12:59;;;;;;;12.93;5.60;;;20.10;31.90;;;;;;4983048;28;20402;-72
2021/08/01 08:15:24;;;;;;;10.52;5.68;;;20.10;31.10;;;;;;4992202;28;20406;-75
2021/08/01 08:17:50;;;;;;;12.18;5.60;;;20.20;31.10;;;;;;4992412;28;20412;-73
2021/08/01 08:20:15;;;;;;;7.73;5.10;;;20.20;31.00;;;;;;4985287;28;20464;-73
2021/08/01 08:22:41;;;;;;;10.75;5.07;;;20.20;30.50;;;;;;4989945;28;20476;-74
2021/08/01 08:25:07;;;;;;;14.75;5.72;;;20.30;30.50;;;;;;4989732;28;20766;-74
2021/08/01 08:27:34;;;;;;;16.45;5.47;;;20.20;30.10;;;;;;4989416;28;20493;-74
2021/08/01 08:29:59;;;;;;;13.20;5.80;;;20.30;29.80;;;;;;4985548;28;20398;-72
2021/08/01 08:32:25;;;;;;;11.20;5.90;;;20.30;29.70;;;;;;4988871;28;20470;-72
2021/08/01 08:34:51;;;;;;;14.50;5.78;;;20.30;29.70;;;;;;4986817;28;20526;-72
2021/08/01 08:37:16;;;;;;;14.48;5.45;;;20.30;30.50;;;;;;4988751;28;20486;-74
2021/08/01 08:39:42;;;;;;;15.07;6.33;;;20.30;30.40;;;;;;4983029;28;20881;-73
2021/08/01 08:42:08;;;;;;;10.88;6.05;;;20.40;30.10;;;;;;4978742;28;20759;-75
2021/08/01 08:44:35;;;;;;;11.70;6.75;;;20.40;29.30;;;;;;4989374;28;20403;-74
2021/08/01 08:47:02;;;;;;;15.65;7.80;;;20.30;29.60;;;;;;4989311;28;20813;-75
2021/08/01 08:49:29;;;;;;;14.82;6.72;;;20.10;30.20;;;;;;4987171;28;20425;-75
2021/08/01 08:51:57;;;;;;;16.42;6.78;;;20.00;30.00;;;;;;4980367;28;20399;-75
2021/08/01 08:54:38;;;;;;;11.25;6.80;;;20.10;29.20;;;;;;4990649;28;20406;-73
2021/08/01 08:57:14;;;;;;;11.40;6.30;;;20.00;29.40;;;;;;4991084;28;20394;-74
2021/08/01 08:59:40;;;;;;;11.15;6.70;;;20.10;28.90;;;;;;4986828;28;20406;-73
2021/08/01 09:02:07;;;;;;;11.30;6.20;;;20.10;29.00;;;;;;4983388;28;20877;-74
2021/08/01 09:04:33;;;;;;;17.45;6.50;;;20.10;28.30;;;;;;4988413;28;20425;-75
2021/08/01 09:06:59;;;;;;;13.43;6.30;;;20.00;28.80;;;;;;4980879;28;20386;-75
2021/08/01 09:09:24;;;;;;;13.63;7.15;;;20.10;28.90;;;;;;4990319;28;20396;-75
2021/08/01 09:11:51;;;;;;;11.88;6.10;;;20.20;27.70;;;;;;5001540;23;20831;-76
2021/08/01 09:14:19;;;;;;;10.90;6.28;;;20.30;27.30;;;;;;4973424;28;20404;-75
2021/08/01 09:16:48;;;;;;;11.10;6.60;;;20.20;27.30;;;;;;4974687;28;20576;-76
2021/08/01 09:19:32;;;;;;;10.68;5.50;;;20.20;27.00;;;;;;4968583;28;20384;-77
2021/08/01 09:22:11;;;;;;;9.50;5.65;;;20.50;27.60;;;;;;4971295;28;20393;-76
2021/08/01 09:24:37;;;;;;;11.52;4.97;;;20.90;26.20;;;;;;4965365;28;20455;-76
2021/08/01 09:27:03;;;;;;;10.27;5.50;;;21.10;24.80;;;;;;4954223;29;20394;-77
2021/08/01 09:29:46;;;;;;;8.23;5.25;;;20.90;24.70;;;;;;4951410;28;20880;-78
2021/08/01 09:32:12;;;;;;;11.73;4.97;;;20.80;25.10;;;;;;4951025;29;20409;-76
2021/08/01 09:34:44;;;;;;;9.20;5.30;;;21.10;24.80;;;;;;4968903;28;20408;-77
2021/08/01 09:37:10;;;;;;;11.50;5.22;;;21.10;25.00;;;;;;4952775;29;20402;-76
2021/08/01 09:39:43;;;;;;;9.93;5.20;;;21.10;25.20;;;;;;4962119;28;20805;-77
2021/08/01 09:42:10;;;;;;;7.50;5.00;;;21.20;25.10;;;;;;4975141;28;20403;-77
2021/08/01 09:44:38;;;;;;;8.63;5.25;;;21.50;23.90;;;;;;4952710;28;20410;-77
2021/08/01 09:47:05;;;;;;;9.65;5.10;;;21.70;22.90;;;;;;4953881;28;20736;-78
2021/08/01 09:49:31;;;;;;;6.65;4.75;;;21.70;22.70;;;;;;4952957;29;20393;-77
2021/08/01 09:51:59;;;;;;;4.83;4.33;;;21.60;22.70;;;;;;4954480;29;20834;-77
2021/08/01 09:54:47;;;;;;;6.05;4.70;;;21.50;23.30;;;;;;4962766;29;20423;-77
2021/08/01 09:57:18;;;;;;;6.90;4.45;;;21.60;23.00;;;;;;4962361;29;20478;-77
2021/08/01 09:59:46;;;;;;;8.48;4.80;;;21.70;22.20;;;;;;4978273;28;20398;-77
2021/08/01 10:02:13;;;;;;;6.93;4.43;;;21.80;22.30;;;;;;4961473;28;20509;-76
2021/08/01 10:04:40;;;;;;;8.00;4.90;;;21.70;21.80;;;;;;4960898;28;20417;-77
2021/08/01 10:07:07;;;;;;;7.45;5.20;;;21.70;23.00;;;;;;4958447;28;20424;-75
2021/08/01 10:09:39;;;;;;;9.25;5.40;;;21.70;23.30;;;;;;4963641;28;20865;-76
2021/08/01 10:12:05;;;;;;;10.70;4.80;;;21.70;22.70;;;;;;4977683;28;20399;-78
2021/08/01 10:14:31;;;;;;;7.93;4.80;;;21.70;22.80;;;;;;4979794;28;20413;-77
2021/08/01 10:16:58;;;;;;;10.02;5.18;;;21.60;22.90;;;;;;4956778;28;20394;-75
2021/08/01 10:19:24;;;;;;;8.75;5.30;;;21.70;23.90;;;;;;4965114;28;20405;-77
2021/08/01 10:21:52;;;;;;;10.77;5.30;;;21.90;23.30;;;;;;4972908;28;20404;-76
2021/08/01 10:24:33;;;;;;;6.32;4.60;;;22.30;21.60;;;;;;4958807;29;20484;-81
2021/08/01 10:27:07;;;;;;;11.10;4.68;;;22.70;21.20;;;;;;4956671;29;20496;-79
2021/08/01 10:29:46;;;;;;;5.07;4.55;;;23.20;19.60;;;;;;4956754;28;20763;-77
2021/08/01 10:32:13;;;;;;;9.45;5.30;;;23.30;18.70;;;;;;4956243;29;20425;-77
2021/08/01 10:34:42;;;;;;;8.82;4.60;;;23.00;19.50;;;;;;4971657;28;20468;-77
2021/08/01 10:37:31;;;;;;;7.15;4.47;;;22.90;19.50;;;;;;4961885;28;20640;-77
2021/08/01 10:39:58;;;;;;;8.02;4.53;;;23.00;19.30;;;;;;4959128;29;20895;-78
2021/08/01 10:42:27;;;;;;;5.72;3.85;;;23.30;19.30;;;;;;4978034;29;20374;-77
2021/08/01 10:44:53;;;;;;;5.28;4.10;;;23.20;17.00;;;;;;4972560;29;20457;-76
2021/08/01 10:47:20;;;;;;;7.22;4.60;;;23.30;18.00;;;;;;4966687;29;20425;-77
2021/08/01 10:49:49;;;;;;;5.43;4.10;;;23.60;17.10;;;;;;4957002;28;20461;-77
2021/08/01 10:52:19;;;;;;;6.40;4.30;;;23.90;17.40;;;;;;4956567;28;20416;-77
2021/08/01 10:54:58;;;;;;;8.73;5.55;;;24.00;17.70;;;;;;4970950;28;20409;-77
2021/08/01 10:57:27;;;;;;;8.50;4.90;;;23.90;17.70;;;;;;4970001;28;20406;-76
2021/08/01 11:00:00;;;;;;;6.93;4.70;;;23.80;18.00;;;;;;4956087;28;20397;-77
2021/08/01 11:02:27;;;;;;;6.80;4.60;;;23.60;18.70;;;;;;4948110;29;20413;-76
2021/08/01 11:04:54;;;;;;;7.07;4.57;;;23.40;18.60;;;;;;4955640;28;20807;-78
2021/08/01 11:07:25;;;;;;;7.50;4.57;;;23.50;18.00;;;;;;4954645;28;20833;-77
2021/08/01 11:10:17;;;;;;;7.53;4.32;;;23.30;18.60;;;;;;4936729;29;20410;-77
2021/08/01 11:12:46;;;;;;;9.25;4.65;;;23.30;17.90;;;;;;4960453;28;20408;-77
2021/08/01 11:15:14;;;;;;;6.45;4.20;;;23.40;18.20;;;;;;4956624;28;20898;-77
2021/08/01 11:17:42;;;;;;;10.93;4.80;;;23.70;17.90;;;;;;4954518;29;20452;-78
2021/08/01 11:20:21;;;;;;;6.40;4.20;;;23.40;18.60;;;;;;4954214;28;20413;-77
2021/08/01 11:22:46;;;;;;;8.33;4.40;;;23.10;18.00;;;;;;4955136;29;20510;-77
2021/08/01 11:25:23;;;;;;;7.33;4.40;;;22.90;19.40;;;;;;4954882;29;20453;-78
2021/08/01 11:28:15;;;;;;;7.53;5.03;;;22.80;19.50;;;;;;4962031;28;20425;-77
2021/08/01 11:30:55;;;;;;;8.80;4.70;;;22.60;19.20;;;;;;4957328;28;20436;-77
2021/08/01 11:33:39;;;;;;;7.97;5.10;;;22.40;20.50;;;;;;4957272;29;20761;-76
2021/08/01 11:36:15;;;;;;;7.15;5.10;;;22.20;21.50;;;;;;4954019;29;20401;-76
2021/08/01 11:38:56;;;;;;;7.18;4.95;;;21.80;22.90;;;;;;4958147;28;20431;-75
2021/08/01 11:41:27;;;;;;;9.68;5.60;;;21.80;23.20;;;;;;4960781;28;20410;-77
2021/08/01 11:44:03;;;;;;;7.40;3.90;;;22.40;21.00;;;;;;4953713;28;20505;-77
2021/08/01 11:46:55;;;;;;;7.30;4.47;;;22.60;19.10;;;;;;4971596;28;20401;-77
2021/08/01 11:49:23;;;;;;;6.50;4.25;;;22.60;19.20;;;;;;4942250;28;20475;-77
2021/08/01 11:51:54;;;;;;;6.05;4.80;;;22.70;19.80;;;;;;4958531;28;20389;-77
2021/08/01 11:54:29;;;;;;;8.85;4.90;;;22.60;19.70;;;;;;4969198;28;20413;-77
2021/08/01 11:57:09;;;;;;;5.18;4.45;;;22.30;20.20;;;;;;4952718;29;20405;-77
2021/08/01 11:59:34;;;;;;;5.82;4.90;;;22.30;20.70;;;;;;4954710;28;20485;-77
2021/08/01 12:02:05;;;;;;;6.57;4.60;;;22.50;20.50;;;;;;4939104;28;20427;-74
2021/08/01 12:04:31;;;;;;;6.13;4.40;;;22.90;20.90;;;;;;4935537;29;20762;-74
2021/08/01 12:06:57;;;;;;;6.55;5.13;;;22.70;20.30;;;;;;4966958;28;20402;-75
2021/08/01 12:09:30;;;;;;;9.90;5.70;;;22.60;21.10;;;;;;4957632;28;20887;-75
2021/08/01 12:12:00;;;;;;;8.95;5.10;;;22.40;21.70;;;;;;4973781;28;20396;-74
2021/08/01 12:14:31;;;;;;;8.23;5.93;;;22.10;22.10;;;;;;4960716;28;20422;-75
2021/08/01 12:16:57;;;;;;;11.75;5.30;;;22.10;21.90;;;;;;4951956;28;20425;-72
2021/08/01 12:19:29;;;;;;;7.23;5.10;;;22.50;22.70;;;;;;4952087;28;20417;-73
2021/08/01 12:22:00;;;;;;;5.95;5.15;;;22.70;21.10;;;;;;4952870;29;20390;-74
2021/08/01 12:24:48;;;;;;;7.70;5.20;;;22.70;19.70;;;;;;4952406;29;20775;-73
2021/08/01 12:27:16;;;;;;;5.90;5.10;;;22.60;20.20;;;;;;4952679;29;20440;-74
2021/08/01 12:29:45;;;;;;;8.45;5.72;;;22.40;19.90;;;;;;4953503;28;20398;-74
2021/08/01 12:32:28;;;;;;;7.07;4.85;;;22.20;21.00;;;;;;4953718;29;20878;-74
2021/08/01 12:35:18;;;;;;;8.10;5.28;;;22.10;19.90;;;;;;4953426;29;20481;-74
2021/08/01 12:37:49;;;;;;;8.45;4.60;;;22.10;19.90;;;;;;4952193;29;20426;-74
2021/08/01 12:40:42;;;;;;;8.23;5.20;;;22.10;20.20;;;;;;4953699;29;20409;-73
2021/08/01 12:43:13;;;;;;;5.30;4.80;;;22.10;20.10;;;;;;4954121;28;20492;-73